createdAt,value
2019-05-29T00:00:54.941Z,8.40
2019-05-29T00:03:26.550Z,5.17
2019-05-29T00:06:00.057Z,10.13
2019-05-29T00:08:31.684Z,8.30
2019-05-29T00:11:03.455Z,9.43
2019-05-29T00:13:35.183Z,5.53
2019-05-29T00:16:06.915Z,6.40
2019-05-29T00:18:38.644Z,10.03
2019-05-29T00:21:11.677Z,11.40
2019-05-29T00:23:44.084Z,9.93
2019-05-29T00:26:16.608Z,6.50
2019-05-29T00:28:49.595Z,10.67
2019-05-29T00:31:21.432Z,12.03
2019-05-29T00:33:53.238Z,6.30
2019-05-29T00:36:24.962Z,6.87
2019-05-29T00:38:56.963Z,7.33
2019-05-29T00:41:28.761Z,5.33
2019-05-29T00:44:00.592Z,4.07
2019-05-29T00:46:33.610Z,3.80
2019-05-29T00:49:05.335Z,8.70
2019-05-29T00:51:37.059Z,5.57
2019-05-29T00:54:08.792Z,6.20
2019-05-29T00:56:40.621Z,8.10
2019-05-29T00:59:13.047Z,10.80
2019-05-29T01:01:44.721Z,9.10
2019-05-29T01:04:16.460Z,4.77
2019-05-29T01:06:48.288Z,8.00
2019-05-29T01:09:20.752Z,7.70
2019-05-29T01:11:53.874Z,6.57
2019-05-29T01:14:25.699Z,5.70
2019-05-29T01:16:57.426Z,8.93
2019-05-29T01:19:29.153Z,8.03
2019-05-29T01:22:02.051Z,7.93
2019-05-29T01:24:33.871Z,8.60
2019-05-29T01:27:05.695Z,6.87
2019-05-29T01:29:37.422Z,14.27
2019-05-29T01:32:09.319Z,4.40
2019-05-29T01:34:40.951Z,6.90
2019-05-29T01:37:13.899Z,4.60
2019-05-29T01:39:46.328Z,16.03
2019-05-29T01:42:19.383Z,6.50
2019-05-29T01:45:06.374Z,5.00
2019-05-29T01:47:24.390Z,8.20
2019-05-29T01:49:56.282Z,6.87
2019-05-29T01:52:28.133Z,9.40
2019-05-29T01:55:00.201Z,7.13
2019-05-29T01:57:33.169Z,4.43
2019-05-29T02:00:08.301Z,3.73
2019-05-29T02:02:40.122Z,7.53
2019-05-29T02:05:12.046Z,5.40
2019-05-29T02:07:43.654Z,6.73
2019-05-29T02:10:18.373Z,4.60
2019-05-29T02:12:50.262Z,5.20
2019-05-29T02:15:29.962Z,3.77
2019-05-29T02:17:55.307Z,6.77
2019-05-29T02:20:27.250Z,5.57
2019-05-29T02:22:59.120Z,13.03
2019-05-29T02:25:30.845Z,4.67
2019-05-29T02:28:02.684Z,8.53
2019-05-29T02:30:34.405Z,6.37
2019-05-29T02:33:08.901Z,4.13
2019-05-29T02:35:40.620Z,7.73
2019-05-29T02:38:13.348Z,10.57
2019-05-29T02:40:46.737Z,3.77
2019-05-29T02:43:19.235Z,7.77
2019-05-29T02:45:54.718Z,5.97
2019-05-29T02:48:27.305Z,4.97
2019-05-29T02:50:59.523Z,5.37
2019-05-29T02:53:31.239Z,3.83
2019-05-29T02:56:03.063Z,7.03
2019-05-29T02:58:34.788Z,6.90
2019-05-29T03:01:06.510Z,5.43
2019-05-29T03:03:40.134Z,6.63
2019-05-29T03:06:12.199Z,8.40
2019-05-29T03:08:44.096Z,11.23
2019-05-29T03:11:15.728Z,7.60
2019-05-29T03:13:47.913Z,5.20
2019-05-29T03:16:21.166Z,5.80
2019-05-29T03:18:52.898Z,9.77
2019-05-29T03:21:26.051Z,11.03
2019-05-29T03:23:57.825Z,8.07
2019-05-29T03:26:31.437Z,5.97
2019-05-29T03:29:04.703Z,4.00
2019-05-29T03:31:43.551Z,6.43
2019-05-29T03:34:10.161Z,3.53
2019-05-29T03:36:47.145Z,8.97
2019-05-29T03:39:15.408Z,5.93
2019-05-29T03:41:47.137Z,7.53
2019-05-29T03:44:19.695Z,7.13
2019-05-29T03:46:51.421Z,4.67
2019-05-29T03:49:24.470Z,5.67
2019-05-29T03:51:56.197Z,4.70
2019-05-29T03:54:28.835Z,4.37
2019-05-29T03:57:01.247Z,7.27
2019-05-29T03:59:37.490Z,3.53
2019-05-29T04:02:09.388Z,4.57
2019-05-29T04:04:41.116Z,8.87
2019-05-29T04:07:14.384Z,4.80
2019-05-29T04:09:47.430Z,6.03
2019-05-29T04:12:20.766Z,3.23
2019-05-29T04:14:54.603Z,6.50
2019-05-29T04:17:29.593Z,4.57
2019-05-29T04:20:01.523Z,5.27
2019-05-29T04:22:41.053Z,11.83
2019-05-29T04:25:14.091Z,5.13
2019-05-29T04:27:50.407Z,11.90
2019-05-29T04:30:22.478Z,6.60
2019-05-29T04:32:54.144Z,3.47
2019-05-29T04:35:25.880Z,5.00
2019-05-29T04:37:58.586Z,10.00
2019-05-29T04:40:30.588Z,6.47
2019-05-29T04:43:02.715Z,8.70
2019-05-29T04:45:37.226Z,4.70
2019-05-29T04:48:08.074Z,10.03
2019-05-29T04:50:40.594Z,5.33
2019-05-29T04:53:12.990Z,6.33
2019-05-29T04:55:44.886Z,4.87
2019-05-29T04:58:16.617Z,6.37
2019-05-29T05:00:58.634Z,4.80
2019-05-29T05:03:21.658Z,3.67
2019-05-29T05:05:53.399Z,7.20
2019-05-29T05:08:25.251Z,5.93
2019-05-29T05:10:56.977Z,6.83
2019-05-29T05:13:29.461Z,5.17
2019-05-29T05:16:03.270Z,6.13
2019-05-29T05:18:35.859Z,6.27
2019-05-29T05:21:07.921Z,8.70
2019-05-29T05:23:40.502Z,3.03
2019-05-29T05:26:12.733Z,6.90
2019-05-29T05:28:46.048Z,6.10
2019-05-29T05:31:18.009Z,7.37
2019-05-29T05:33:49.861Z,5.73
2019-05-29T05:36:21.856Z,4.73
2019-05-29T05:38:53.695Z,4.43
2019-05-29T05:41:25.425Z,6.73
2019-05-29T05:43:57.150Z,9.03
2019-05-29T05:46:28.895Z,9.53
2019-05-29T05:49:00.732Z,5.50
2019-05-29T05:51:33.459Z,11.47
2019-05-29T05:54:06.144Z,7.00
2019-05-29T05:56:37.792Z,7.27
2019-05-29T05:59:09.644Z,8.67
2019-05-29T06:01:42.200Z,4.13
2019-05-29T06:04:14.031Z,4.97
2019-05-29T06:06:46.127Z,4.50
2019-05-29T06:09:19.502Z,5.73
2019-05-29T06:11:51.136Z,5.83
2019-05-29T06:14:22.855Z,6.03
2019-05-29T06:16:54.584Z,6.10
2019-05-29T06:19:26.433Z,6.43
2019-05-29T06:21:58.160Z,5.67
2019-05-29T06:24:30.878Z,5.77
2019-05-29T06:27:02.619Z,3.10
2019-05-29T06:29:35.222Z,6.30
2019-05-29T06:32:07.381Z,3.93
2019-05-29T06:34:39.611Z,3.10
2019-05-29T06:37:12.667Z,4.50
2019-05-29T06:39:44.503Z,5.10
2019-05-29T06:42:16.259Z,6.70
2019-05-29T06:44:49.823Z,3.27
2019-05-29T06:47:21.602Z,9.23
2019-05-29T06:49:53.336Z,4.37
2019-05-29T06:52:25.066Z,6.70
2019-05-29T06:54:57.684Z,4.00
2019-05-29T06:57:29.515Z,4.97
2019-05-29T07:00:01.278Z,3.77
2019-05-29T07:02:34.300Z,3.23
2019-05-29T07:05:08.399Z,5.47
2019-05-29T07:07:40.428Z,4.33
2019-05-29T07:10:12.975Z,2.77
2019-05-29T07:12:44.755Z,4.57
2019-05-29T07:15:17.316Z,2.83
2019-05-29T07:17:48.944Z,2.17
2019-05-29T07:20:20.965Z,3.37
2019-05-29T07:22:52.666Z,2.17
2019-05-29T07:25:24.480Z,6.27
2019-05-29T07:27:56.531Z,3.10
2019-05-29T07:30:28.762Z,2.87
2019-05-29T07:33:00.590Z,3.47
2019-05-29T07:35:32.352Z,2.30
2019-05-29T07:38:04.339Z,5.73
2019-05-29T07:40:36.179Z,4.87
2019-05-29T07:43:07.900Z,4.20
2019-05-29T07:45:40.574Z,5.30
2019-05-29T07:48:12.982Z,3.40
2019-05-29T07:50:46.070Z,2.73
2019-05-29T07:53:19.314Z,4.23
2019-05-29T07:55:51.055Z,6.30
2019-05-29T07:58:22.824Z,6.17
2019-05-29T08:01:12.199Z,8.10
2019-05-29T08:03:28.181Z,2.53
2019-05-29T08:05:59.931Z,4.13
2019-05-29T08:08:31.706Z,6.03
2019-05-29T08:11:03.474Z,5.57
2019-05-29T08:13:35.221Z,5.13
2019-05-29T08:16:06.954Z,5.67
2019-05-29T08:18:41.132Z,3.63
2019-05-29T08:21:12.573Z,4.03
2019-05-29T08:23:44.433Z,6.30
2019-05-29T08:26:16.156Z,4.80
2019-05-29T08:28:48.901Z,3.50
2019-05-29T08:31:21.245Z,3.63
2019-05-29T08:33:53.000Z,5.63
2019-05-29T08:36:24.726Z,5.07
2019-05-29T08:38:56.496Z,2.77
2019-05-29T08:41:28.222Z,4.20
2019-05-29T08:43:59.986Z,4.57
2019-05-29T08:46:33.511Z,4.83
2019-05-29T08:49:05.039Z,4.23
2019-05-29T08:51:37.761Z,2.90
2019-05-29T08:54:23.647Z,4.20
2019-05-29T08:56:44.263Z,8.30
2019-05-29T08:59:16.312Z,3.47
2019-05-29T09:01:50.400Z,6.00
2019-05-29T09:04:21.753Z,7.33
2019-05-29T09:06:53.651Z,2.37
2019-05-29T09:09:26.743Z,4.03
2019-05-29T09:11:58.572Z,3.77
2019-05-29T09:14:30.483Z,3.27
2019-05-29T09:17:02.338Z,3.30
2019-05-29T09:19:34.154Z,2.87
2019-05-29T09:22:05.886Z,6.40
2019-05-29T09:24:37.625Z,3.40
2019-05-29T09:27:09.360Z,3.37
2019-05-29T09:29:41.188Z,2.30
2019-05-29T09:32:13.683Z,3.37
2019-05-29T09:34:47.705Z,2.93
2019-05-29T09:37:20.519Z,4.73
2019-05-29T09:39:52.465Z,4.70
2019-05-29T09:42:25.345Z,2.87
2019-05-29T09:44:57.519Z,5.83
2019-05-29T09:47:29.347Z,2.90
2019-05-29T09:50:01.391Z,2.07
2019-05-29T09:52:34.629Z,2.63
2019-05-29T09:55:08.105Z,2.43
2019-05-29T09:57:39.741Z,5.37
2019-05-29T10:00:12.709Z,2.83
2019-05-29T10:02:44.534Z,3.30
2019-05-29T10:05:17.548Z,5.67
2019-05-29T10:07:49.180Z,2.77
2019-05-29T10:10:21.458Z,5.83
2019-05-29T10:12:53.510Z,6.93
2019-05-29T10:15:26.888Z,2.97
2019-05-29T10:18:01.097Z,4.73
2019-05-29T10:20:33.121Z,5.23
2019-05-29T10:23:05.321Z,2.50
2019-05-29T10:25:37.094Z,5.20
2019-05-29T10:28:08.876Z,3.80
2019-05-29T10:30:42.257Z,7.20
2019-05-29T10:33:14.516Z,4.40
2019-05-29T10:35:49.049Z,6.00
2019-05-29T10:38:19.876Z,9.77
2019-05-29T10:41:00.542Z,3.20
2019-05-29T10:43:34.044Z,3.80
2019-05-29T10:45:58.829Z,4.23
2019-05-29T10:48:30.598Z,4.93
2019-05-29T10:51:02.525Z,5.70
2019-05-29T10:53:34.350Z,5.87
2019-05-29T10:56:08.260Z,1.43
2019-05-29T10:58:49.735Z,2.70
2019-05-29T11:01:13.624Z,3.67
2019-05-29T11:03:45.582Z,4.70
2019-05-29T11:06:17.478Z,4.63
2019-05-29T11:08:50.015Z,3.43
2019-05-29T11:11:22.107Z,3.50
2019-05-29T11:13:55.177Z,2.80
2019-05-29T11:16:27.259Z,4.83
2019-05-29T11:18:59.006Z,3.33
2019-05-29T11:21:30.988Z,5.53
2019-05-29T11:24:02.850Z,6.33
2019-05-29T11:26:34.591Z,5.77
2019-05-29T11:29:06.565Z,4.40
2019-05-29T11:31:38.398Z,3.50
2019-05-29T11:34:10.241Z,4.93
2019-05-29T11:36:41.975Z,5.83
2019-05-29T11:39:13.755Z,2.70
2019-05-29T11:41:45.503Z,2.77
2019-05-29T11:44:17.349Z,3.67
2019-05-29T11:46:50.166Z,3.30
2019-05-29T11:49:21.995Z,3.33
2019-05-29T11:51:55.356Z,3.40
2019-05-29T11:54:27.064Z,2.77
2019-05-29T14:00:17.085Z,4.43
2019-05-29T14:02:37.693Z,2.97
2019-05-29T14:05:10.726Z,5.30
2019-05-29T14:07:42.374Z,2.40
2019-05-29T14:10:15.992Z,7.50
2019-05-29T14:12:48.629Z,3.20
2019-05-29T14:15:21.631Z,2.60
2019-05-29T14:17:53.405Z,2.90
2019-05-29T14:20:26.263Z,4.13
2019-05-29T14:22:58.457Z,3.50
2019-05-29T14:25:30.519Z,1.93
2019-05-29T14:28:02.724Z,2.20
2019-05-29T14:30:34.648Z,3.70
2019-05-29T14:33:06.838Z,6.13
2019-05-29T14:35:40.011Z,1.87
2019-05-29T14:38:14.936Z,4.33
2019-05-29T14:40:45.468Z,1.83
2019-05-29T14:43:17.443Z,2.40
2019-05-29T14:45:49.561Z,4.97
2019-05-29T14:48:21.296Z,2.30
2019-05-29T14:50:54.573Z,4.87
2019-05-29T14:53:26.329Z,6.43
2019-05-29T14:55:58.070Z,2.23
2019-05-29T14:58:30.874Z,3.70
2019-05-29T15:01:03.111Z,2.97
2019-05-29T15:03:35.201Z,6.43
2019-05-29T15:06:07.615Z,3.07
2019-05-29T15:08:39.535Z,4.37
2019-05-29T15:11:12.081Z,2.40
2019-05-29T15:13:43.802Z,3.70
2019-05-29T15:16:15.457Z,5.03
2019-05-29T15:18:47.188Z,4.60
2019-05-29T15:21:18.942Z,3.70
2019-05-29T15:23:54.546Z,5.93
2019-05-29T15:26:27.097Z,8.30
2019-05-29T15:29:01.125Z,3.60
2019-05-29T15:31:35.760Z,3.30
2019-05-29T15:34:08.851Z,3.03
2019-05-29T15:36:41.682Z,3.27
2019-05-29T15:39:14.679Z,5.43
2019-05-29T15:41:47.881Z,4.83
2019-05-29T15:44:22.537Z,4.27
2019-05-29T15:46:58.428Z,5.17
2019-05-29T15:49:31.360Z,2.77
2019-05-29T15:52:03.182Z,2.83
2019-05-29T15:54:34.946Z,4.83
2019-05-29T15:57:06.955Z,4.00
2019-05-29T15:59:39.262Z,5.13
2019-05-29T16:02:11.473Z,3.60
2019-05-29T16:04:43.556Z,3.10
2019-05-29T16:07:16.102Z,2.90
2019-05-29T16:09:48.482Z,5.40
2019-05-29T16:12:20.306Z,6.13
2019-05-29T16:14:52.423Z,1.67
2019-05-29T16:17:24.719Z,7.47
2019-05-29T16:19:56.452Z,6.43
2019-05-29T16:22:28.328Z,3.53
2019-05-29T16:25:01.172Z,2.80
2019-05-29T16:27:33.522Z,5.43
2019-05-29T16:30:09.147Z,3.93
2019-05-29T16:32:42.310Z,2.90
2019-05-29T16:35:19.345Z,2.50
2019-05-29T16:37:52.237Z,2.93
2019-05-29T16:40:25.422Z,3.67
2019-05-29T16:42:58.392Z,2.43
2019-05-29T16:45:41.701Z,3.50
2019-05-29T16:48:16.475Z,4.47
2019-05-29T16:50:50.016Z,4.47
2019-05-29T16:53:23.321Z,2.33
2019-05-29T16:55:55.488Z,2.53
2019-05-29T16:58:27.179Z,29.03
2019-05-29T17:00:59.041Z,62.43
2019-05-29T17:03:30.807Z,23.50
2019-05-29T17:06:03.820Z,20.93
2019-05-29T17:08:35.723Z,27.53
2019-05-29T17:11:09.964Z,13.57
2019-05-29T17:13:41.678Z,21.33
2019-05-29T17:16:14.427Z,21.60
2019-05-29T17:18:47.930Z,24.63
2019-05-29T17:21:22.737Z,11.57
2019-05-29T17:23:54.511Z,10.90
2019-05-29T17:26:26.830Z,22.87
2019-05-29T17:28:59.659Z,6.77
2019-05-29T17:31:31.537Z,8.33
2019-05-29T17:34:04.475Z,11.27
2019-05-29T17:36:38.089Z,13.80
2019-05-29T17:39:10.988Z,29.70
2019-05-29T17:41:42.688Z,10.37
2019-05-29T17:44:15.441Z,9.23
2019-05-29T17:46:47.418Z,19.57
2019-05-29T17:49:28.968Z,18.27
2019-05-29T17:51:54.509Z,13.57
2019-05-29T17:54:27.796Z,27.70
2019-05-29T17:57:01.553Z,27.93
2019-05-29T17:59:34.288Z,74.47
2019-05-29T18:02:06.243Z,48.13
2019-05-29T18:04:38.223Z,28.23
2019-05-29T18:07:10.279Z,13.53
2019-05-29T18:09:43.679Z,10.47
2019-05-29T18:12:17.011Z,22.73
2019-05-29T18:14:53.233Z,9.57
2019-05-29T18:17:27.821Z,14.73
2019-05-29T18:20:01.390Z,9.27
2019-05-29T18:22:36.470Z,9.63
2019-05-29T18:25:11.636Z,12.47
2019-05-29T18:27:44.944Z,10.63
2019-05-29T18:30:18.441Z,11.53
2019-05-29T18:32:50.675Z,9.97
2019-05-29T18:35:22.921Z,7.60
2019-05-29T18:37:54.932Z,11.80
2019-05-29T18:40:26.880Z,19.83
2019-05-29T18:42:59.074Z,16.93
2019-05-29T18:45:31.069Z,11.23
2019-05-29T18:48:04.402Z,12.17
2019-05-29T18:50:36.628Z,9.30
2019-05-29T18:53:09.979Z,13.43
2019-05-29T18:55:42.953Z,15.67
2019-05-29T18:58:16.175Z,21.47
2019-05-29T19:00:48.770Z,21.33
2019-05-29T19:03:21.371Z,14.87
2019-05-29T19:05:55.229Z,14.90
2019-05-29T19:08:27.766Z,20.10
2019-05-29T19:10:59.533Z,12.90
2019-05-29T19:13:32.458Z,18.97
2019-05-29T19:16:04.311Z,18.17
2019-05-29T19:18:36.084Z,23.27
2019-05-29T19:21:12.460Z,19.03
2019-05-29T19:23:45.343Z,14.30
2019-05-29T19:26:19.589Z,22.43
2019-05-29T19:28:53.374Z,16.30
2019-05-29T19:31:27.058Z,13.00
2019-05-29T19:34:01.589Z,11.90
2019-05-29T19:36:35.266Z,22.07
2019-05-29T19:39:09.947Z,10.97
2019-05-29T19:41:41.807Z,8.87
2019-05-29T19:44:13.800Z,13.33
2019-05-29T19:46:53.644Z,10.83
2019-05-29T19:49:20.043Z,13.13
2019-05-29T19:51:52.353Z,13.07
2019-05-29T19:54:25.323Z,13.03
2019-05-29T19:56:57.576Z,14.27
2019-05-29T19:59:29.977Z,15.23
2019-05-29T20:02:03.640Z,15.70
2019-05-29T20:04:38.037Z,15.50
2019-05-29T20:07:09.672Z,26.60
2019-05-29T20:09:41.638Z,20.50
2019-05-29T20:12:16.549Z,23.40
2019-05-29T20:14:48.976Z,13.97
2019-05-29T20:17:22.544Z,15.67
2019-05-29T20:19:54.608Z,12.63
2019-05-29T20:22:28.569Z,19.37
2019-05-29T20:25:01.571Z,14.30
2019-05-29T20:27:34.223Z,21.43
2019-05-29T20:30:08.444Z,19.67
2019-05-29T20:32:40.259Z,15.40
2019-05-29T20:35:18.017Z,15.60
2019-05-29T20:37:49.689Z,14.07
2019-05-29T20:40:25.052Z,15.80
2019-05-29T20:42:56.896Z,15.00
2019-05-29T20:45:29.540Z,12.47
2019-05-29T20:48:02.756Z,10.27
2019-05-29T20:50:37.702Z,14.13
2019-05-29T20:53:11.192Z,11.13
2019-05-29T20:55:43.016Z,9.20
2019-05-29T20:58:24.417Z,10.40
2019-05-29T21:00:56.151Z,18.20
2019-05-29T21:03:27.946Z,9.63
2019-05-29T21:06:04.662Z,7.87
2019-05-29T21:08:38.956Z,5.43
2019-05-29T21:11:12.834Z,7.23
2019-05-29T21:13:45.275Z,4.77
2019-05-29T21:16:17.102Z,6.13
2019-05-29T21:18:54.432Z,6.83
2019-05-29T21:21:30.217Z,4.30
2019-05-29T21:24:02.137Z,2.60
2019-05-29T21:26:34.983Z,7.83
2019-05-29T21:29:16.686Z,13.77
2019-05-29T21:31:49.562Z,5.47
2019-05-29T21:34:23.599Z,8.30
2019-05-29T21:36:55.421Z,6.27
2019-05-29T21:39:27.132Z,7.90
2019-05-29T21:41:58.956Z,7.87
2019-05-29T21:44:30.681Z,9.27
2019-05-29T21:47:02.399Z,6.80
2019-05-29T21:49:34.222Z,9.30
2019-05-29T21:52:06.122Z,9.07
2019-05-29T21:54:37.740Z,6.10
2019-05-29T21:57:09.567Z,5.07
2019-05-29T21:59:41.647Z,7.30
2019-05-29T22:02:13.578Z,4.47
2019-05-29T22:04:46.467Z,7.17
2019-05-29T22:07:19.023Z,4.80
2019-05-29T22:09:50.740Z,5.37
2019-05-29T22:12:22.451Z,4.87
2019-05-29T22:14:55.162Z,5.97
2019-05-29T22:17:26.969Z,4.10
2019-05-29T22:19:59.042Z,8.23
2019-05-29T22:22:31.136Z,5.57
2019-05-29T22:25:02.807Z,5.47
2019-05-29T22:27:36.010Z,4.77
2019-05-29T22:30:09.353Z,12.57
2019-05-29T22:32:40.970Z,5.60
2019-05-29T22:35:13.408Z,5.57
2019-05-29T22:37:45.327Z,5.20
2019-05-29T22:40:17.709Z,3.80
2019-05-29T22:42:49.413Z,6.87
2019-05-29T22:45:21.515Z,7.57
2019-05-29T22:47:53.864Z,8.27
2019-05-29T22:50:25.913Z,3.83
2019-05-29T22:52:57.860Z,4.80
2019-05-29T22:55:30.034Z,11.00
2019-05-29T22:58:02.205Z,8.43
2019-05-29T23:00:36.585Z,4.33
2019-05-29T23:03:08.409Z,7.70
2019-05-29T23:05:40.160Z,5.37
2019-05-29T23:08:11.875Z,5.10
2019-05-29T23:10:43.723Z,3.20
2019-05-29T23:13:15.444Z,6.83
2019-05-29T23:15:47.188Z,8.53
2019-05-29T23:18:20.073Z,5.87
2019-05-29T23:20:52.408Z,7.87
2019-05-29T23:23:24.625Z,5.40
2019-05-29T23:25:56.560Z,6.40
2019-05-29T23:28:28.806Z,7.17
2019-05-29T23:31:01.028Z,10.83
2019-05-29T23:33:33.226Z,7.20
2019-05-29T23:36:05.230Z,4.90
2019-05-29T23:38:37.046Z,4.70
2019-05-29T23:41:08.768Z,7.77
2019-05-29T23:43:40.493Z,6.90
2019-05-29T23:46:12.319Z,7.17
2019-05-29T23:48:44.038Z,6.80
2019-05-29T23:51:15.777Z,6.93
2019-05-29T23:53:47.652Z,4.20
2019-05-29T23:56:19.314Z,6.87
2019-05-29T23:58:51.036Z,6.13
